createdAt,value
2022-12-31T00:02:24.695Z,14.70
2022-12-31T00:04:51.329Z,14.70
2022-12-31T00:07:17.950Z,14.70
2022-12-31T00:09:44.577Z,14.70
2022-12-31T00:12:11.246Z,14.80
2022-12-31T00:14:37.891Z,14.80
2022-12-31T00:17:04.537Z,14.80
2022-12-31T00:19:31.229Z,14.80
2022-12-31T00:21:57.869Z,14.80
2022-12-31T00:24:24.563Z,14.80
2022-12-31T00:26:51.204Z,14.80
2022-12-31T00:29:17.836Z,14.80
2022-12-31T00:31:44.482Z,14.80
2022-12-31T00:34:11.123Z,14.80
2022-12-31T00:36:39.220Z,14.80
2022-12-31T00:39:08.384Z,14.80
2022-12-31T00:41:35.250Z,14.80
2022-12-31T00:44:02.313Z,14.80
2022-12-31T00:46:29.107Z,14.80
2022-12-31T00:48:55.812Z,14.80
2022-12-31T00:53:50.729Z,14.80
2022-12-31T00:56:20.044Z,14.80
2022-12-31T00:58:47.381Z,14.70
2022-12-31T01:01:19.903Z,14.70
2022-12-31T01:03:48.783Z,14.70
2022-12-31T01:06:16.633Z,14.80
2022-12-31T01:08:43.621Z,14.80
2022-12-31T01:11:28.878Z,14.70
2022-12-31T01:14:06.394Z,14.80
2022-12-31T01:16:45.533Z,14.80
2022-12-31T01:19:27.312Z,14.80
2022-12-31T01:21:54.961Z,14.80
2022-12-31T01:24:21.720Z,14.70
2022-12-31T01:26:48.341Z,14.70
2022-12-31T01:29:16.839Z,14.60
2022-12-31T01:31:43.591Z,14.70
2022-12-31T01:34:10.268Z,14.70
2022-12-31T01:36:38.085Z,14.70
2022-12-31T01:39:06.758Z,14.70
2022-12-31T01:41:38.637Z,14.70
2022-12-31T01:44:11.413Z,14.70
2022-12-31T01:46:56.247Z,14.70
2022-12-31T01:49:43.421Z,14.70
2022-12-31T01:52:15.539Z,14.70
2022-12-31T01:54:55.585Z,14.70
2022-12-31T01:57:25.798Z,14.70
2022-12-31T01:59:54.344Z,14.70
2022-12-31T02:02:21.168Z,14.70
2022-12-31T02:04:50.889Z,14.70
2022-12-31T02:07:17.609Z,14.70
2022-12-31T02:09:44.715Z,14.70
2022-12-31T02:12:11.930Z,14.70
2022-12-31T02:14:43.786Z,14.70
2022-12-31T02:17:40.405Z,14.70
2022-12-31T02:20:43.704Z,14.80
2022-12-31T02:23:42.655Z,14.80
2022-12-31T02:26:57.664Z,14.80
2022-12-31T02:29:39.903Z,14.90
2022-12-31T02:32:19.083Z,14.90
2022-12-31T02:34:56.482Z,14.90
2022-12-31T02:37:27.450Z,14.90
2022-12-31T02:39:55.145Z,14.90
2022-12-31T02:42:21.797Z,14.90
2022-12-31T02:44:48.445Z,14.90
2022-12-31T02:47:30.918Z,14.90
2022-12-31T02:50:19.053Z,14.90
2022-12-31T02:53:14.503Z,14.90
2022-12-31T02:55:41.334Z,14.90
2022-12-31T02:58:52.419Z,14.80
2022-12-31T03:01:45.101Z,14.80
2022-12-31T03:04:32.035Z,14.80
2022-12-31T03:07:05.270Z,14.80
2022-12-31T03:09:32.176Z,14.80
2022-12-31T03:12:18.306Z,14.80
2022-12-31T03:14:45.151Z,14.80
2022-12-31T03:17:12.300Z,14.80
2022-12-31T03:19:57.724Z,14.70
2022-12-31T03:22:27.431Z,14.70
2022-12-31T03:25:19.293Z,14.80
2022-12-31T03:27:47.186Z,14.70
2022-12-31T03:30:15.676Z,14.80
2022-12-31T03:32:43.884Z,14.70
2022-12-31T03:35:12.227Z,14.70
2022-12-31T03:37:40.116Z,14.70
2022-12-31T03:40:08.406Z,14.70
2022-12-31T03:42:35.275Z,14.70
2022-12-31T03:45:02.269Z,14.70
2022-12-31T03:47:29.045Z,14.70
2022-12-31T03:49:55.856Z,14.70
2022-12-31T03:52:23.070Z,14.60
2022-12-31T03:54:50.784Z,14.60
2022-12-31T03:57:17.441Z,14.60
2022-12-31T03:59:44.091Z,14.60
2022-12-31T04:02:11.028Z,14.60
2022-12-31T04:04:37.826Z,14.60
2022-12-31T04:07:04.530Z,14.50
2022-12-31T04:09:31.198Z,14.60
2022-12-31T04:11:57.941Z,14.60
2022-12-31T04:14:24.804Z,14.60
2022-12-31T04:16:51.476Z,14.60
2022-12-31T04:19:18.181Z,14.60
2022-12-31T04:21:44.826Z,14.60
2022-12-31T04:24:11.677Z,14.60
2022-12-31T04:26:38.637Z,14.70
2022-12-31T04:29:05.673Z,14.60
2022-12-31T04:31:32.413Z,14.70
2022-12-31T04:33:59.173Z,14.70
2022-12-31T04:36:25.820Z,14.70
2022-12-31T04:38:52.472Z,14.70
2022-12-31T04:41:19.796Z,14.60
2022-12-31T04:43:57.498Z,14.70
2022-12-31T04:46:29.395Z,14.60
2022-12-31T04:48:56.403Z,14.60
2022-12-31T04:51:23.820Z,14.60
2022-12-31T04:53:50.807Z,14.60
2022-12-31T04:56:17.825Z,14.60
2022-12-31T04:58:44.730Z,14.70
2022-12-31T05:01:11.967Z,14.70
2022-12-31T05:03:39.068Z,14.70
2022-12-31T05:06:12.357Z,14.70
2022-12-31T05:08:39.035Z,14.70
2022-12-31T05:11:05.944Z,14.80
2022-12-31T05:13:33.789Z,14.80
2022-12-31T05:16:02.125Z,14.80
2022-12-31T05:18:29.517Z,14.80
2022-12-31T05:20:56.174Z,14.80
2022-12-31T05:23:23.332Z,14.80
2022-12-31T05:25:50.262Z,14.80
2022-12-31T05:28:17.818Z,14.80
2022-12-31T05:30:47.449Z,14.80
2022-12-31T05:33:14.137Z,14.80
2022-12-31T05:35:40.766Z,14.80
2022-12-31T05:38:08.231Z,14.80
2022-12-31T05:40:34.911Z,14.80
2022-12-31T05:43:01.537Z,14.80
2022-12-31T05:45:30.892Z,14.80
2022-12-31T05:47:58.195Z,14.70
2022-12-31T05:50:25.099Z,14.70
2022-12-31T05:52:54.141Z,14.70
2022-12-31T05:55:20.785Z,14.70
2022-12-31T05:57:47.458Z,14.70
2022-12-31T06:00:14.752Z,14.60
2022-12-31T06:02:41.485Z,14.70
2022-12-31T06:05:08.663Z,14.70
2022-12-31T06:07:35.341Z,14.70
2022-12-31T06:10:02.064Z,14.70
2022-12-31T06:12:28.743Z,14.60
2022-12-31T06:14:55.401Z,14.70
2022-12-31T06:17:22.547Z,14.70
2022-12-31T06:19:49.274Z,14.70
2022-12-31T06:22:16.392Z,14.70
2022-12-31T06:24:43.043Z,14.70
2022-12-31T06:27:09.719Z,14.70
2022-12-31T06:29:36.467Z,14.70
2022-12-31T06:32:03.196Z,14.70
2022-12-31T06:34:29.832Z,14.70
2022-12-31T06:36:56.473Z,14.70
2022-12-31T06:39:23.225Z,14.70
2022-12-31T06:41:49.847Z,14.70
2022-12-31T06:44:16.583Z,14.70
2022-12-31T06:46:43.255Z,14.70
2022-12-31T06:49:10.109Z,14.70
2022-12-31T06:51:36.717Z,14.70
2022-12-31T06:54:03.446Z,14.70
2022-12-31T06:56:34.451Z,14.70
2022-12-31T06:59:02.902Z,14.70
2022-12-31T07:01:44.650Z,14.70
2022-12-31T07:04:30.372Z,14.70
2022-12-31T07:07:20.812Z,14.70
2022-12-31T07:10:19.121Z,14.70
2022-12-31T07:13:11.747Z,14.70
2022-12-31T07:15:41.173Z,14.60
2022-12-31T07:18:23.824Z,14.60
2022-12-31T07:20:50.853Z,14.70
2022-12-31T07:23:17.800Z,14.60
2022-12-31T07:25:53.089Z,14.70
2022-12-31T07:28:32.115Z,14.70
2022-12-31T07:31:20.189Z,14.70
2022-12-31T07:34:09.674Z,14.70
2022-12-31T07:37:04.513Z,14.70
2022-12-31T07:39:41.480Z,14.70
2022-12-31T07:42:13.326Z,14.70
2022-12-31T07:45:09.467Z,14.70
2022-12-31T07:47:36.491Z,14.80
2022-12-31T07:50:04.057Z,14.80
2022-12-31T07:52:30.958Z,14.80
2022-12-31T07:54:57.578Z,14.80
2022-12-31T07:57:31.092Z,14.80
2022-12-31T08:00:08.100Z,14.80
2022-12-31T08:03:01.072Z,14.90
2022-12-31T08:05:49.616Z,14.90
2022-12-31T08:08:16.167Z,14.90
2022-12-31T08:11:16.657Z,14.90
2022-12-31T08:13:43.891Z,14.90
2022-12-31T08:16:12.392Z,14.90
2022-12-31T08:18:39.487Z,14.90
2022-12-31T08:21:20.756Z,14.90
2022-12-31T08:24:07.189Z,15.00
2022-12-31T08:26:51.058Z,15.00
2022-12-31T08:29:25.508Z,15.00
2022-12-31T08:31:59.976Z,15.00
2022-12-31T08:34:51.654Z,15.00
2022-12-31T08:37:42.831Z,15.10
2022-12-31T08:40:28.972Z,15.00
2022-12-31T08:43:14.347Z,15.10
2022-12-31T08:45:43.583Z,15.10
2022-12-31T08:48:37.400Z,15.20
2022-12-31T08:51:04.676Z,15.20
2022-12-31T08:53:31.998Z,15.10
2022-12-31T08:56:17.391Z,15.10
2022-12-31T08:59:07.833Z,15.10
2022-12-31T09:02:16.053Z,15.00
2022-12-31T09:05:01.402Z,15.00
2022-12-31T09:07:38.238Z,15.10
2022-12-31T09:10:28.552Z,15.10
2022-12-31T09:13:11.992Z,15.00
2022-12-31T09:18:16.378Z,15.10
2022-12-31T09:20:44.494Z,15.00
2022-12-31T09:23:13.169Z,15.00
2022-12-31T09:26:21.437Z,15.00
2022-12-31T09:29:00.675Z,15.00
2022-12-31T09:31:44.629Z,15.00
2022-12-31T09:34:35.739Z,15.10
2022-12-31T09:37:43.650Z,15.10
2022-12-31T09:40:28.788Z,15.10
2022-12-31T09:43:25.570Z,15.10
2022-12-31T09:46:19.619Z,15.10
2022-12-31T09:49:11.111Z,15.10
2022-12-31T09:54:52.213Z,15.10
2022-12-31T09:57:54.105Z,15.30
2022-12-31T10:00:38.419Z,15.20
2022-12-31T10:03:35.561Z,15.20
2022-12-31T10:06:33.353Z,15.20
2022-12-31T10:09:32.676Z,15.20
2022-12-31T10:12:14.203Z,15.30
2022-12-31T10:15:16.909Z,15.30
2022-12-31T10:18:06.853Z,15.30
2022-12-31T10:20:45.680Z,15.30
2022-12-31T10:23:39.196Z,15.30
2022-12-31T10:26:24.696Z,15.30
2022-12-31T10:29:17.965Z,15.40
2022-12-31T10:31:53.621Z,15.40
2022-12-31T10:34:30.733Z,15.40
2022-12-31T10:39:58.223Z,15.40
2022-12-31T10:42:24.837Z,15.40
2022-12-31T10:56:02.872Z,15.40
2022-12-31T10:58:58.390Z,15.60
2022-12-31T11:01:32.892Z,15.50
2022-12-31T11:04:05.646Z,15.60
2022-12-31T11:06:49.326Z,15.60
2022-12-31T11:12:26.881Z,15.60
2022-12-31T11:14:56.515Z,15.60
2022-12-31T11:18:01.513Z,15.60
2022-12-31T11:20:56.301Z,15.70
2022-12-31T11:23:41.833Z,15.70
2022-12-31T11:26:11.243Z,15.70
2022-12-31T11:28:58.120Z,15.70
2022-12-31T11:31:44.828Z,15.70
2022-12-31T11:34:21.441Z,15.70
2022-12-31T11:37:13.952Z,15.80
2022-12-31T11:39:53.637Z,15.80
2022-12-31T11:42:38.474Z,15.80
2022-12-31T11:45:26.709Z,15.70
2022-12-31T11:48:32.021Z,15.80
2022-12-31T11:51:32.679Z,15.80
2022-12-31T11:54:18.142Z,15.80
2022-12-31T11:56:53.289Z,15.80
2022-12-31T11:59:20.817Z,15.80
2022-12-31T12:02:20.588Z,15.80
2022-12-31T12:04:49.019Z,15.80
2022-12-31T12:07:17.554Z,15.80
2022-12-31T12:09:44.933Z,15.80
2022-12-31T12:12:12.373Z,15.80
2022-12-31T12:14:42.402Z,15.80
2022-12-31T12:17:15.205Z,15.80
2022-12-31T12:19:46.862Z,15.80
2022-12-31T12:22:27.972Z,15.80
2022-12-31T12:24:57.604Z,15.90
2022-12-31T12:27:28.997Z,15.90
2022-12-31T12:29:55.714Z,15.90
2022-12-31T12:32:25.030Z,15.90
2022-12-31T12:34:52.402Z,15.90
2022-12-31T12:37:32.283Z,15.90
2022-12-31T12:40:03.453Z,15.90
2022-12-31T12:42:30.751Z,15.90
2022-12-31T12:45:10.911Z,15.90
2022-12-31T12:47:37.567Z,15.90
2022-12-31T12:50:09.791Z,15.90
2022-12-31T12:52:41.698Z,15.90
2022-12-31T12:55:27.061Z,15.90
2022-12-31T12:58:22.068Z,15.90
2022-12-31T13:01:14.293Z,15.90
2022-12-31T13:07:18.732Z,15.90
2022-12-31T13:10:08.855Z,15.90
2022-12-31T13:13:22.598Z,15.90
2022-12-31T13:15:47.162Z,15.90
2022-12-31T13:18:50.080Z,15.90
2022-12-31T13:21:38.033Z,15.90
2022-12-31T13:24:22.025Z,15.90
2022-12-31T13:27:28.836Z,16.00
2022-12-31T13:30:01.354Z,16.00
2022-12-31T13:32:40.687Z,15.90
2022-12-31T13:35:25.373Z,16.00
2022-12-31T13:38:05.002Z,16.00
2022-12-31T13:40:46.505Z,16.00
2022-12-31T13:43:25.945Z,16.00
2022-12-31T13:46:25.221Z,16.00
2022-12-31T13:49:01.012Z,16.00
2022-12-31T13:51:44.415Z,16.00
2022-12-31T13:54:29.911Z,16.00
2022-12-31T13:57:02.548Z,16.00
2022-12-31T13:59:35.904Z,16.10
2022-12-31T14:02:34.943Z,16.00
2022-12-31T14:05:34.313Z,16.00
2022-12-31T14:08:02.947Z,16.10
2022-12-31T14:10:38.342Z,16.00
2022-12-31T14:13:27.866Z,16.00
2022-12-31T14:16:13.552Z,16.00
2022-12-31T14:19:05.328Z,16.00
2022-12-31T14:21:44.769Z,16.00
2022-12-31T14:24:14.406Z,16.00
2022-12-31T14:26:45.973Z,16.00
2022-12-31T14:29:14.703Z,16.00
2022-12-31T14:31:51.792Z,15.90
2022-12-31T14:34:33.289Z,15.90
2022-12-31T14:37:30.296Z,15.90
2022-12-31T14:40:30.756Z,15.90
2022-12-31T14:43:20.161Z,15.90
2022-12-31T14:46:13.348Z,15.90
2022-12-31T14:48:51.104Z,15.90
2022-12-31T14:51:17.862Z,15.90
2022-12-31T14:53:56.787Z,15.90
2022-12-31T14:56:42.706Z,15.90
2022-12-31T14:59:35.609Z,15.90
2022-12-31T15:02:48.450Z,15.90
2022-12-31T15:05:19.590Z,15.90
2022-12-31T15:07:49.249Z,15.90
2022-12-31T15:10:58.966Z,15.90
2022-12-31T15:13:50.357Z,15.90
2022-12-31T15:16:35.615Z,16.00
2022-12-31T15:19:22.811Z,16.00
2022-12-31T15:22:02.824Z,16.00
2022-12-31T15:24:30.823Z,16.10
2022-12-31T15:27:04.040Z,16.10
2022-12-31T15:29:44.064Z,16.10
2022-12-31T15:32:24.813Z,16.10
2022-12-31T15:35:20.794Z,16.10
2022-12-31T15:38:18.440Z,16.10
2022-12-31T15:40:53.104Z,16.10
2022-12-31T15:44:06.494Z,16.10
2022-12-31T15:46:38.215Z,16.10
2022-12-31T15:49:15.607Z,16.10
2022-12-31T15:51:54.535Z,16.10
2022-12-31T15:54:35.269Z,16.10
2022-12-31T15:57:08.932Z,16.10
2022-12-31T15:59:38.163Z,16.10
2022-12-31T16:02:05.281Z,16.10
2022-12-31T16:04:39.394Z,16.10
2022-12-31T16:07:06.084Z,16.10
2022-12-31T16:09:35.811Z,16.10
2022-12-31T16:12:08.871Z,16.10
2022-12-31T16:14:39.262Z,16.10
2022-12-31T16:17:06.684Z,16.10
2022-12-31T16:19:41.374Z,16.10
2022-12-31T16:22:24.627Z,16.10
2022-12-31T16:27:49.707Z,16.10
2022-12-31T16:30:33.573Z,16.10
2022-12-31T16:33:02.971Z,16.10
2022-12-31T16:35:36.338Z,16.10
2022-12-31T16:38:12.248Z,16.10
2022-12-31T16:40:41.068Z,16.10
2022-12-31T16:43:27.332Z,16.10
2022-12-31T16:46:07.061Z,16.20
2022-12-31T16:48:33.876Z,16.20
2022-12-31T16:51:00.672Z,16.20
2022-12-31T16:53:28.228Z,16.20
2022-12-31T16:56:02.742Z,16.20
2022-12-31T16:58:33.018Z,16.20
2022-12-31T17:01:22.359Z,16.20
2022-12-31T17:03:57.801Z,16.20
2022-12-31T17:06:25.641Z,16.20
2022-12-31T17:08:59.557Z,16.20
2022-12-31T17:11:36.546Z,16.30
2022-12-31T17:14:06.208Z,16.30
2022-12-31T17:16:35.256Z,16.30
2022-12-31T17:19:02.408Z,16.30
2022-12-31T17:21:31.317Z,16.30
2022-12-31T17:24:04.274Z,16.30
2022-12-31T17:26:33.559Z,16.30
2022-12-31T17:29:02.303Z,16.30
2022-12-31T17:31:33.841Z,16.30
2022-12-31T17:34:06.684Z,16.30
2022-12-31T17:36:33.405Z,16.30
2022-12-31T17:39:20.788Z,16.30
2022-12-31T17:41:49.561Z,16.30
2022-12-31T17:44:22.754Z,16.30
2022-12-31T17:46:52.715Z,16.30
2022-12-31T17:49:27.208Z,16.30
2022-12-31T17:51:53.904Z,16.30
2022-12-31T17:54:20.560Z,16.30
2022-12-31T17:56:47.714Z,16.30
2022-12-31T17:59:20.745Z,16.30
2022-12-31T18:01:48.370Z,16.30
2022-12-31T18:04:18.034Z,16.30
2022-12-31T18:06:45.169Z,16.30
2022-12-31T18:09:11.950Z,16.30
2022-12-31T18:11:40.082Z,16.30
2022-12-31T18:14:07.275Z,16.30
2022-12-31T18:16:34.190Z,16.40
2022-12-31T18:19:01.307Z,16.30
2022-12-31T18:21:29.692Z,16.40
2022-12-31T18:26:24.521Z,16.40
2022-12-31T18:28:51.800Z,16.40
2022-12-31T18:31:27.209Z,16.40
2022-12-31T18:33:56.558Z,16.30
2022-12-31T18:36:24.310Z,16.40
2022-12-31T18:38:51.464Z,16.30
2022-12-31T18:41:20.843Z,16.40
2022-12-31T18:43:48.170Z,16.30
2022-12-31T18:46:18.233Z,16.40
2022-12-31T18:48:45.009Z,16.40
2022-12-31T18:51:16.629Z,16.40
2022-12-31T18:53:43.570Z,16.40
2022-12-31T18:56:15.191Z,16.40
2022-12-31T18:58:42.317Z,16.40
2022-12-31T19:01:29.954Z,16.40
2022-12-31T19:03:59.417Z,16.40
2022-12-31T19:06:26.535Z,16.40
2022-12-31T19:08:53.278Z,16.40
2022-12-31T19:11:20.981Z,16.40
2022-12-31T19:13:48.364Z,16.40
2022-12-31T19:16:15.493Z,16.40
2022-12-31T19:18:43.341Z,16.40
2022-12-31T19:23:41.641Z,16.40
2022-12-31T19:26:16.396Z,16.40
2022-12-31T19:28:44.020Z,16.40
2022-12-31T19:31:11.001Z,16.40
2022-12-31T19:33:38.048Z,16.40
2022-12-31T19:36:07.329Z,16.40
2022-12-31T19:38:34.457Z,16.40
2022-12-31T19:41:02.069Z,16.40
2022-12-31T19:43:28.977Z,16.40
2022-12-31T19:45:55.716Z,16.40
2022-12-31T19:48:30.471Z,16.40
2022-12-31T19:51:00.024Z,16.40
2022-12-31T19:53:28.197Z,16.30
2022-12-31T19:55:54.938Z,16.30
2022-12-31T19:58:25.475Z,16.30
2022-12-31T20:00:58.413Z,16.30
2022-12-31T20:03:28.592Z,16.30
